sensor_id;sensor_type;location;lat;lon;timestamp;P1;durP1;ratioP1;P2;durP2;ratioP2
72235;SDS011;60146;52.498;13.462;2023-06-24T00:00:02;12.90;;;6.88;;
72235;SDS011;60146;52.498;13.462;2023-06-24T00:02:31;11.88;;;6.78;;
72235;SDS011;60146;52.498;13.462;2023-06-24T00:04:57;13.38;;;6.60;;
72235;SDS011;60146;52.498;13.462;2023-06-24T00:07:25;14.52;;;6.18;;
72235;SDS011;60146;52.498;13.462;2023-06-24T00:09:51;11.35;;;6.70;;
72235;SDS011;60146;52.498;13.462;2023-06-24T00:12:16;11.82;;;6.75;;
72235;SDS011;60146;52.498;13.462;2023-06-24T00:14:44;11.68;;;6.88;;
72235;SDS011;60146;52.498;13.462;2023-06-24T00:17:10;10.65;;;6.35;;
72235;SDS011;60146;52.498;13.462;2023-06-24T00:19:36;11.32;;;6.53;;
72235;SDS011;60146;52.498;13.462;2023-06-24T00:22:02;12.07;;;6.80;;
72235;SDS011;60146;52.498;13.462;2023-06-24T00:24:28;11.82;;;7.05;;
72235;SDS011;60146;52.498;13.462;2023-06-24T00:26:55;15.25;;;7.18;;
72235;SDS011;60146;52.498;13.462;2023-06-24T00:29:20;13.13;;;7.40;;
72235;SDS011;60146;52.498;13.462;2023-06-24T00:31:46;13.98;;;7.20;;
72235;SDS011;60146;52.498;13.462;2023-06-24T00:34:12;14.63;;;8.02;;
72235;SDS011;60146;52.498;13.462;2023-06-24T00:36:37;13.82;;;8.20;;
72235;SDS011;60146;52.498;13.462;2023-06-24T00:39:03;19.00;;;8.75;;
72235;SDS011;60146;52.498;13.462;2023-06-24T00:41:30;17.42;;;9.00;;
72235;SDS011;60146;52.498;13.462;2023-06-24T00:43:56;17.98;;;9.68;;
72235;SDS011;60146;52.498;13.462;2023-06-24T00:46:26;17.05;;;9.52;;
72235;SDS011;60146;52.498;13.462;2023-06-24T00:48:52;17.25;;;9.25;;
72235;SDS011;60146;52.498;13.462;2023-06-24T00:51:21;18.73;;;9.60;;
72235;SDS011;60146;52.498;13.462;2023-06-24T00:53:52;20.70;;;10.45;;
72235;SDS011;60146;52.498;13.462;2023-06-24T00:56:17;18.55;;;10.27;;
72235;SDS011;60146;52.498;13.462;2023-06-24T00:58:46;19.20;;;10.07;;
72235;SDS011;60146;52.498;13.462;2023-06-24T01:01:12;19.90;;;10.93;;
72235;SDS011;60146;52.498;13.462;2023-06-24T01:03:38;20.52;;;12.02;;
72235;SDS011;60146;52.498;13.462;2023-06-24T01:06:03;19.40;;;10.75;;
72235;SDS011;60146;52.498;13.462;2023-06-24T01:08:29;21.58;;;11.75;;
72235;SDS011;60146;52.498;13.462;2023-06-24T01:10:55;22.15;;;11.55;;
72235;SDS011;60146;52.498;13.462;2023-06-24T01:13:20;24.10;;;10.73;;
72235;SDS011;60146;52.498;13.462;2023-06-24T01:15:46;24.70;;;10.88;;
72235;SDS011;60146;52.498;13.462;2023-06-24T01:18:21;21.20;;;10.20;;
72235;SDS011;60146;52.498;13.462;2023-06-24T01:21:21;20.00;;;10.05;;
72235;SDS011;60146;52.498;13.462;2023-06-24T01:24:20;18.70;;;10.80;;
72235;SDS011;60146;52.498;13.462;2023-06-24T01:27:19;20.02;;;10.13;;
72235;SDS011;60146;52.498;13.462;2023-06-24T01:32:33;22.88;;;10.82;;
72235;SDS011;60146;52.498;13.462;2023-06-24T01:35:13;16.73;;;9.82;;
72235;SDS011;60146;52.498;13.462;2023-06-24T01:37:46;16.30;;;9.48;;
72235;SDS011;60146;52.498;13.462;2023-06-24T01:40:20;17.05;;;9.23;;
72235;SDS011;60146;52.498;13.462;2023-06-24T01:42:59;18.42;;;9.75;;
72235;SDS011;60146;52.498;13.462;2023-06-24T01:45:29;16.20;;;9.40;;
72235;SDS011;60146;52.498;13.462;2023-06-24T01:48:02;17.42;;;9.90;;
72235;SDS011;60146;52.498;13.462;2023-06-24T01:50:55;14.20;;;8.38;;
72235;SDS011;60146;52.498;13.462;2023-06-24T01:53:24;19.55;;;8.45;;
72235;SDS011;60146;52.498;13.462;2023-06-24T01:55:53;15.90;;;8.60;;
72235;SDS011;60146;52.498;13.462;2023-06-24T01:58:20;15.07;;;8.13;;
72235;SDS011;60146;52.498;13.462;2023-06-24T02:00:47;14.73;;;8.32;;
72235;SDS011;60146;52.498;13.462;2023-06-24T02:03:14;15.15;;;7.80;;
72235;SDS011;60146;52.498;13.462;2023-06-24T02:05:40;13.55;;;8.07;;
72235;SDS011;60146;52.498;13.462;2023-06-24T02:08:10;15.65;;;8.52;;
72235;SDS011;60146;52.498;13.462;2023-06-24T02:10:37;14.25;;;7.80;;
72235;SDS011;60146;52.498;13.462;2023-06-24T02:13:03;14.57;;;8.10;;
72235;SDS011;60146;52.498;13.462;2023-06-24T02:15:30;12.98;;;8.05;;
72235;SDS011;60146;52.498;13.462;2023-06-24T02:17:56;16.90;;;8.98;;
72235;SDS011;60146;52.498;13.462;2023-06-24T02:20:23;14.50;;;8.18;;
72235;SDS011;60146;52.498;13.462;2023-06-24T02:22:51;17.77;;;8.38;;
72235;SDS011;60146;52.498;13.462;2023-06-24T02:25:17;14.98;;;8.73;;
72235;SDS011;60146;52.498;13.462;2023-06-24T02:27:45;16.10;;;8.48;;
72235;SDS011;60146;52.498;13.462;2023-06-24T02:30:11;16.75;;;8.27;;
72235;SDS011;60146;52.498;13.462;2023-06-24T02:32:39;18.70;;;8.75;;
72235;SDS011;60146;52.498;13.462;2023-06-24T02:35:05;14.65;;;8.60;;
72235;SDS011;60146;52.498;13.462;2023-06-24T02:37:32;16.65;;;8.63;;
72235;SDS011;60146;52.498;13.462;2023-06-24T02:39:57;14.98;;;8.40;;
72235;SDS011;60146;52.498;13.462;2023-06-24T02:42:24;16.10;;;7.75;;
72235;SDS011;60146;52.498;13.462;2023-06-24T02:44:49;13.95;;;7.90;;
72235;SDS011;60146;52.498;13.462;2023-06-24T02:47:15;12.73;;;8.18;;
72235;SDS011;60146;52.498;13.462;2023-06-24T02:49:42;15.75;;;8.32;;
72235;SDS011;60146;52.498;13.462;2023-06-24T02:52:11;14.68;;;7.30;;
72235;SDS011;60146;52.498;13.462;2023-06-24T02:54:37;13.80;;;7.85;;
72235;SDS011;60146;52.498;13.462;2023-06-24T02:57:04;16.83;;;7.57;;
72235;SDS011;60146;52.498;13.462;2023-06-24T02:59:31;12.85;;;6.85;;
72235;SDS011;60146;52.498;13.462;2023-06-24T03:01:57;17.10;;;7.50;;
72235;SDS011;60146;52.498;13.462;2023-06-24T03:04:23;12.93;;;7.38;;
72235;SDS011;60146;52.498;13.462;2023-06-24T03:06:49;12.18;;;7.63;;
72235;SDS011;60146;52.498;13.462;2023-06-24T03:09:16;14.73;;;6.97;;
72235;SDS011;60146;52.498;13.462;2023-06-24T03:11:42;13.60;;;7.00;;
72235;SDS011;60146;52.498;13.462;2023-06-24T03:14:09;11.55;;;6.82;;
72235;SDS011;60146;52.498;13.462;2023-06-24T03:16:35;12.85;;;6.82;;
72235;SDS011;60146;52.498;13.462;2023-06-24T03:19:00;13.38;;;7.25;;
72235;SDS011;60146;52.498;13.462;2023-06-24T03:21:26;14.30;;;6.80;;
72235;SDS011;60146;52.498;13.462;2023-06-24T03:23:53;12.93;;;6.80;;
72235;SDS011;60146;52.498;13.462;2023-06-24T03:26:19;12.73;;;7.00;;
72235;SDS011;60146;52.498;13.462;2023-06-24T03:28:44;10.75;;;6.78;;
72235;SDS011;60146;52.498;13.462;2023-06-24T03:31:10;13.57;;;6.70;;
72235;SDS011;60146;52.498;13.462;2023-06-24T03:33:35;12.18;;;6.95;;
72235;SDS011;60146;52.498;13.462;2023-06-24T03:36:00;11.25;;;6.55;;
72235;SDS011;60146;52.498;13.462;2023-06-24T03:38:26;16.88;;;7.07;;
72235;SDS011;60146;52.498;13.462;2023-06-24T03:40:52;12.50;;;6.38;;
72235;SDS011;60146;52.498;13.462;2023-06-24T03:43:18;12.25;;;6.40;;
72235;SDS011;60146;52.498;13.462;2023-06-24T03:45:43;13.75;;;6.85;;
72235;SDS011;60146;52.498;13.462;2023-06-24T03:48:09;10.50;;;6.30;;
72235;SDS011;60146;52.498;13.462;2023-06-24T03:50:34;11.23;;;6.95;;
72235;SDS011;60146;52.498;13.462;2023-06-24T03:52:59;15.32;;;7.00;;
72235;SDS011;60146;52.498;13.462;2023-06-24T03:55:25;12.52;;;7.13;;
72235;SDS011;60146;52.498;13.462;2023-06-24T03:57:50;13.35;;;6.60;;
72235;SDS011;60146;52.498;13.462;2023-06-24T04:00:15;13.32;;;6.47;;
72235;SDS011;60146;52.498;13.462;2023-06-24T04:02:42;14.60;;;7.00;;
72235;SDS011;60146;52.498;13.462;2023-06-24T04:05:09;13.02;;;6.90;;
72235;SDS011;60146;52.498;13.462;2023-06-24T04:07:34;12.68;;;6.30;;
72235;SDS011;60146;52.498;13.462;2023-06-24T04:10:01;16.27;;;6.75;;
72235;SDS011;60146;52.498;13.462;2023-06-24T04:12:28;12.05;;;6.47;;
72235;SDS011;60146;52.498;13.462;2023-06-24T04:14:54;11.77;;;6.65;;
72235;SDS011;60146;52.498;13.462;2023-06-24T04:17:19;11.05;;;6.35;;
72235;SDS011;60146;52.498;13.462;2023-06-24T04:19:44;12.25;;;6.15;;
72235;SDS011;60146;52.498;13.462;2023-06-24T04:22:10;11.30;;;6.28;;
72235;SDS011;60146;52.498;13.462;2023-06-24T04:24:35;12.85;;;6.40;;
72235;SDS011;60146;52.498;13.462;2023-06-24T04:27:01;15.15;;;6.70;;
72235;SDS011;60146;52.498;13.462;2023-06-24T04:29:26;11.57;;;6.55;;
72235;SDS011;60146;52.498;13.462;2023-06-24T04:31:51;11.48;;;6.75;;
72235;SDS011;60146;52.498;13.462;2023-06-24T04:34:17;11.07;;;6.15;;
72235;SDS011;60146;52.498;13.462;2023-06-24T04:36:42;12.70;;;6.25;;
72235;SDS011;60146;52.498;13.462;2023-06-24T04:39:07;12.65;;;6.50;;
72235;SDS011;60146;52.498;13.462;2023-06-24T04:41:33;12.93;;;6.90;;
72235;SDS011;60146;52.498;13.462;2023-06-24T04:43:58;14.10;;;7.22;;
72235;SDS011;60146;52.498;13.462;2023-06-24T04:46:24;11.20;;;6.30;;
72235;SDS011;60146;52.498;13.462;2023-06-24T04:48:49;14.63;;;7.05;;
72235;SDS011;60146;52.498;13.462;2023-06-24T04:51:14;12.80;;;6.47;;
72235;SDS011;60146;52.498;13.462;2023-06-24T04:53:40;11.05;;;6.38;;
72235;SDS011;60146;52.498;13.462;2023-06-24T04:56:05;11.48;;;6.50;;
72235;SDS011;60146;52.498;13.462;2023-06-24T04:58:31;12.50;;;6.63;;
72235;SDS011;60146;52.498;13.462;2023-06-24T05:00:57;13.57;;;6.30;;
72235;SDS011;60146;52.498;13.462;2023-06-24T05:03:22;13.77;;;6.40;;
72235;SDS011;60146;52.498;13.462;2023-06-24T05:05:47;12.85;;;6.20;;
72235;SDS011;60146;52.498;13.462;2023-06-24T05:08:13;15.30;;;6.63;;
72235;SDS011;60146;52.498;13.462;2023-06-24T05:10:38;11.18;;;5.90;;
72235;SDS011;60146;52.498;13.462;2023-06-24T05:13:03;12.07;;;6.60;;
72235;SDS011;60146;52.498;13.462;2023-06-24T05:15:29;11.93;;;6.40;;
72235;SDS011;60146;52.498;13.462;2023-06-24T05:17:55;11.82;;;6.20;;
72235;SDS011;60146;52.498;13.462;2023-06-24T05:20:21;11.10;;;6.30;;
72235;SDS011;60146;52.498;13.462;2023-06-24T05:22:46;12.02;;;6.75;;
72235;SDS011;60146;52.498;13.462;2023-06-24T05:25:11;11.95;;;6.32;;
72235;SDS011;60146;52.498;13.462;2023-06-24T05:27:37;12.48;;;6.38;;
72235;SDS011;60146;52.498;13.462;2023-06-24T05:30:02;10.02;;;5.70;;
72235;SDS011;60146;52.498;13.462;2023-06-24T05:32:28;11.85;;;6.80;;
72235;SDS011;60146;52.498;13.462;2023-06-24T05:34:53;12.88;;;6.70;;
72235;SDS011;60146;52.498;13.462;2023-06-24T05:37:18;13.30;;;6.55;;
72235;SDS011;60146;52.498;13.462;2023-06-24T05:39:43;11.55;;;6.05;;
72235;SDS011;60146;52.498;13.462;2023-06-24T05:42:09;10.02;;;6.00;;
72235;SDS011;60146;52.498;13.462;2023-06-24T05:44:34;10.88;;;5.85;;
72235;SDS011;60146;52.498;13.462;2023-06-24T05:46:59;11.60;;;5.65;;
72235;SDS011;60146;52.498;13.462;2023-06-24T05:49:25;12.13;;;6.22;;
72235;SDS011;60146;52.498;13.462;2023-06-24T05:51:50;11.82;;;6.03;;
72235;SDS011;60146;52.498;13.462;2023-06-24T05:54:16;11.00;;;5.97;;
72235;SDS011;60146;52.498;13.462;2023-06-24T05:56:41;10.50;;;6.00;;
72235;SDS011;60146;52.498;13.462;2023-06-24T05:59:06;12.90;;;5.78;;
72235;SDS011;60146;52.498;13.462;2023-06-24T06:01:32;11.15;;;5.82;;
72235;SDS011;60146;52.498;13.462;2023-06-24T06:03:57;12.85;;;5.80;;
72235;SDS011;60146;52.498;13.462;2023-06-24T06:06:22;11.20;;;5.63;;
72235;SDS011;60146;52.498;13.462;2023-06-24T06:08:48;8.48;;;5.50;;
72235;SDS011;60146;52.498;13.462;2023-06-24T06:11:13;15.90;;;8.95;;
72235;SDS011;60146;52.498;13.462;2023-06-24T06:13:38;9.20;;;5.90;;
72235;SDS011;60146;52.498;13.462;2023-06-24T06:16:04;12.98;;;5.93;;
72235;SDS011;60146;52.498;13.462;2023-06-24T06:18:29;12.80;;;5.55;;
72235;SDS011;60146;52.498;13.462;2023-06-24T06:20:54;12.88;;;5.93;;
72235;SDS011;60146;52.498;13.462;2023-06-24T06:23:20;10.35;;;5.60;;
72235;SDS011;60146;52.498;13.462;2023-06-24T06:25:45;11.90;;;5.60;;
72235;SDS011;60146;52.498;13.462;2023-06-24T06:28:11;9.73;;;5.68;;
72235;SDS011;60146;52.498;13.462;2023-06-24T06:30:36;10.82;;;5.25;;
72235;SDS011;60146;52.498;13.462;2023-06-24T06:33:01;10.60;;;5.57;;
72235;SDS011;60146;52.498;13.462;2023-06-24T06:35:27;8.90;;;5.30;;
72235;SDS011;60146;52.498;13.462;2023-06-24T06:37:52;9.38;;;4.90;;
72235;SDS011;60146;52.498;13.462;2023-06-24T06:40:21;11.93;;;5.30;;
72235;SDS011;60146;52.498;13.462;2023-06-24T06:42:47;10.15;;;5.53;;
72235;SDS011;60146;52.498;13.462;2023-06-24T06:45:12;7.53;;;4.53;;
72235;SDS011;60146;52.498;13.462;2023-06-24T06:47:38;9.68;;;5.05;;
72235;SDS011;60146;52.498;13.462;2023-06-24T06:50:03;11.45;;;5.07;;
72235;SDS011;60146;52.498;13.462;2023-06-24T06:52:29;12.07;;;5.30;;
72235;SDS011;60146;52.498;13.462;2023-06-24T06:54:54;9.65;;;5.15;;
72235;SDS011;60146;52.498;13.462;2023-06-24T06:57:20;8.77;;;4.85;;
72235;SDS011;60146;52.498;13.462;2023-06-24T06:59:45;8.02;;;4.75;;
72235;SDS011;60146;52.498;13.462;2023-06-24T07:02:11;13.98;;;5.75;;
72235;SDS011;60146;52.498;13.462;2023-06-24T07:04:36;10.15;;;5.47;;
72235;SDS011;60146;52.498;13.462;2023-06-24T07:07:02;10.23;;;5.60;;
72235;SDS011;60146;52.498;13.462;2023-06-24T07:09:27;8.80;;;5.00;;
72235;SDS011;60146;52.498;13.462;2023-06-24T07:11:53;8.55;;;5.30;;
72235;SDS011;60146;52.498;13.462;2023-06-24T07:14:18;10.75;;;4.97;;
72235;SDS011;60146;52.498;13.462;2023-06-24T07:16:43;10.88;;;5.07;;
72235;SDS011;60146;52.498;13.462;2023-06-24T07:19:09;11.30;;;5.68;;
72235;SDS011;60146;52.498;13.462;2023-06-24T07:21:34;11.52;;;5.60;;
72235;SDS011;60146;52.498;13.462;2023-06-24T07:23:59;8.23;;;5.13;;
72235;SDS011;60146;52.498;13.462;2023-06-24T07:26:25;13.10;;;5.13;;
72235;SDS011;60146;52.498;13.462;2023-06-24T07:29:23;9.60;;;4.40;;
72235;SDS011;60146;52.498;13.462;2023-06-24T07:31:54;9.55;;;4.60;;
72235;SDS011;60146;52.498;13.462;2023-06-24T07:34:20;8.95;;;5.00;;
72235;SDS011;60146;52.498;13.462;2023-06-24T07:36:45;7.80;;;4.82;;
72235;SDS011;60146;52.498;13.462;2023-06-24T07:39:10;6.93;;;4.22;;
72235;SDS011;60146;52.498;13.462;2023-06-24T07:41:36;7.35;;;4.00;;
72235;SDS011;60146;52.498;13.462;2023-06-24T07:44:01;7.03;;;3.90;;
72235;SDS011;60146;52.498;13.462;2023-06-24T07:46:26;5.97;;;3.75;;
72235;SDS011;60146;52.498;13.462;2023-06-24T07:48:52;6.88;;;4.00;;
72235;SDS011;60146;52.498;13.462;2023-06-24T07:51:18;6.32;;;3.72;;
72235;SDS011;60146;52.498;13.462;2023-06-24T07:53:43;8.27;;;3.60;;
72235;SDS011;60146;52.498;13.462;2023-06-24T07:56:09;4.75;;;3.47;;
72235;SDS011;60146;52.498;13.462;2023-06-24T07:58:34;6.05;;;3.60;;
72235;SDS011;60146;52.498;13.462;2023-06-24T08:01:03;6.45;;;3.75;;
72235;SDS011;60146;52.498;13.462;2023-06-24T08:03:29;8.85;;;4.22;;
72235;SDS011;60146;52.498;13.462;2023-06-24T08:05:54;7.65;;;4.10;;
72235;SDS011;60146;52.498;13.462;2023-06-24T08:08:19;6.28;;;3.72;;
72235;SDS011;60146;52.498;13.462;2023-06-24T08:10:45;5.00;;;3.30;;
72235;SDS011;60146;52.498;13.462;2023-06-24T08:13:11;6.05;;;3.80;;
72235;SDS011;60146;52.498;13.462;2023-06-24T08:15:36;6.57;;;3.42;;
72235;SDS011;60146;52.498;13.462;2023-06-24T08:18:01;7.07;;;3.55;;
72235;SDS011;60146;52.498;13.462;2023-06-24T08:20:27;6.03;;;3.60;;
72235;SDS011;60146;52.498;13.462;2023-06-24T08:22:52;5.78;;;3.92;;
72235;SDS011;60146;52.498;13.462;2023-06-24T08:28:40;4.95;;;3.35;;
72235;SDS011;60146;52.498;13.462;2023-06-24T08:31:05;6.28;;;3.53;;
72235;SDS011;60146;52.498;13.462;2023-06-24T08:33:30;7.13;;;3.55;;
72235;SDS011;60146;52.498;13.462;2023-06-24T08:35:55;5.10;;;3.20;;
72235;SDS011;60146;52.498;13.462;2023-06-24T08:38:21;6.95;;;3.65;;
72235;SDS011;60146;52.498;13.462;2023-06-24T08:40:46;6.75;;;3.67;;
72235;SDS011;60146;52.498;13.462;2023-06-24T08:43:13;4.97;;;3.15;;
72235;SDS011;60146;52.498;13.462;2023-06-24T08:45:39;6.78;;;3.75;;
72235;SDS011;60146;52.498;13.462;2023-06-24T08:48:04;5.38;;;3.63;;
72235;SDS011;60146;52.498;13.462;2023-06-24T08:50:37;5.15;;;3.30;;
72235;SDS011;60146;52.498;13.462;2023-06-24T08:53:08;4.88;;;3.42;;
72235;SDS011;60146;52.498;13.462;2023-06-24T08:55:39;5.57;;;3.30;;
72235;SDS011;60146;52.498;13.462;2023-06-24T08:58:08;5.10;;;3.20;;
72235;SDS011;60146;52.498;13.462;2023-06-24T09:00:33;4.65;;;3.40;;
72235;SDS011;60146;52.498;13.462;2023-06-24T09:02:59;4.82;;;3.20;;
72235;SDS011;60146;52.498;13.462;2023-06-24T09:05:24;5.43;;;3.30;;
72235;SDS011;60146;52.498;13.462;2023-06-24T09:07:49;4.57;;;3.47;;
72235;SDS011;60146;52.498;13.462;2023-06-24T09:10:36;7.05;;;3.25;;
72235;SDS011;60146;52.498;13.462;2023-06-24T09:13:02;5.00;;;3.28;;
72235;SDS011;60146;52.498;13.462;2023-06-24T09:15:34;8.15;;;3.35;;
72235;SDS011;60146;52.498;13.462;2023-06-24T09:18:00;5.95;;;3.30;;
72235;SDS011;60146;52.498;13.462;2023-06-24T09:20:27;5.00;;;3.03;;
72235;SDS011;60146;52.498;13.462;2023-06-24T09:23:04;6.38;;;3.67;;
72235;SDS011;60146;52.498;13.462;2023-06-24T09:25:30;5.03;;;3.00;;
72235;SDS011;60146;52.498;13.462;2023-06-24T09:27:59;6.10;;;2.90;;
72235;SDS011;60146;52.498;13.462;2023-06-24T09:30:25;5.00;;;3.13;;
72235;SDS011;60146;52.498;13.462;2023-06-24T09:32:51;4.57;;;3.08;;
72235;SDS011;60146;52.498;13.462;2023-06-24T09:35:18;6.95;;;3.03;;
72235;SDS011;60146;52.498;13.462;2023-06-24T09:38:03;5.07;;;3.10;;
72235;SDS011;60146;52.498;13.462;2023-06-24T09:40:31;5.22;;;3.10;;
72235;SDS011;60146;52.498;13.462;2023-06-24T09:42:59;5.97;;;2.78;;
72235;SDS011;60146;52.498;13.462;2023-06-24T09:45:29;5.60;;;2.75;;
72235;SDS011;60146;52.498;13.462;2023-06-24T09:47:55;3.17;;;2.75;;
72235;SDS011;60146;52.498;13.462;2023-06-24T09:50:22;3.92;;;2.80;;
72235;SDS011;60146;52.498;13.462;2023-06-24T09:52:48;5.18;;;2.90;;
72235;SDS011;60146;52.498;13.462;2023-06-24T09:55:16;5.45;;;2.83;;
72235;SDS011;60146;52.498;13.462;2023-06-24T09:57:44;4.20;;;2.53;;
72235;SDS011;60146;52.498;13.462;2023-06-24T10:00:11;3.45;;;2.72;;
72235;SDS011;60146;52.498;13.462;2023-06-24T10:02:40;4.85;;;3.15;;
72235;SDS011;60146;52.498;13.462;2023-06-24T10:05:06;6.40;;;2.80;;
72235;SDS011;60146;52.498;13.462;2023-06-24T10:07:31;4.85;;;2.72;;
72235;SDS011;60146;52.498;13.462;2023-06-24T10:10:00;6.38;;;2.80;;
72235;SDS011;60146;52.498;13.462;2023-06-24T10:14:53;3.15;;;2.50;;
72235;SDS011;60146;52.498;13.462;2023-06-24T10:17:19;3.47;;;2.60;;
72235;SDS011;60146;52.498;13.462;2023-06-24T10:19:44;4.90;;;2.35;;
72235;SDS011;60146;52.498;13.462;2023-06-24T10:22:10;2.92;;;2.17;;
72235;SDS011;60146;52.498;13.462;2023-06-24T10:24:37;3.17;;;2.42;;
72235;SDS011;60146;52.498;13.462;2023-06-24T10:29:40;2.33;;;2.00;;
72235;SDS011;60146;52.498;13.462;2023-06-24T10:32:10;4.85;;;2.13;;
72235;SDS011;60146;52.498;13.462;2023-06-24T10:34:39;5.68;;;2.15;;
72235;SDS011;60146;52.498;13.462;2023-06-24T10:47:33;2.70;;;2.30;;
72235;SDS011;60146;52.498;13.462;2023-06-24T10:50:00;5.07;;;2.20;;
72235;SDS011;60146;52.498;13.462;2023-06-24T10:52:25;3.83;;;2.15;;
72235;SDS011;60146;52.498;13.462;2023-06-24T10:54:51;2.45;;;2.20;;
72235;SDS011;60146;52.498;13.462;2023-06-24T10:57:25;3.22;;;2.40;;
72235;SDS011;60146;52.498;13.462;2023-06-24T10:59:52;4.63;;;2.10;;
72235;SDS011;60146;52.498;13.462;2023-06-24T11:02:19;3.35;;;2.40;;
72235;SDS011;60146;52.498;13.462;2023-06-24T11:04:46;2.63;;;2.20;;
72235;SDS011;60146;52.498;13.462;2023-06-24T11:07:13;4.82;;;3.05;;
72235;SDS011;60146;52.498;13.462;2023-06-24T11:09:47;4.13;;;2.80;;
72235;SDS011;60146;52.498;13.462;2023-06-24T11:12:24;3.72;;;2.38;;
72235;SDS011;60146;52.498;13.462;2023-06-24T11:14:51;3.07;;;2.40;;
72235;SDS011;60146;52.498;13.462;2023-06-24T11:17:16;3.90;;;2.35;;
72235;SDS011;60146;52.498;13.462;2023-06-24T11:19:44;5.37;;;2.83;;
72235;SDS011;60146;52.498;13.462;2023-06-24T11:22:09;5.10;;;2.50;;
72235;SDS011;60146;52.498;13.462;2023-06-24T11:24:35;4.32;;;2.50;;
72235;SDS011;60146;52.498;13.462;2023-06-24T11:27:01;2.95;;;2.40;;
72235;SDS011;60146;52.498;13.462;2023-06-24T11:29:29;3.10;;;2.70;;
72235;SDS011;60146;52.498;13.462;2023-06-24T11:31:57;4.60;;;2.63;;
72235;SDS011;60146;52.498;13.462;2023-06-24T11:34:23;3.20;;;2.60;;
72235;SDS011;60146;52.498;13.462;2023-06-24T11:36:49;3.92;;;2.58;;
72235;SDS011;60146;52.498;13.462;2023-06-24T11:39:59;4.30;;;2.80;;
72235;SDS011;60146;52.498;13.462;2023-06-24T11:42:06;3.33;;;2.33;;
72235;SDS011;60146;52.498;13.462;2023-06-24T11:44:33;4.55;;;2.50;;
72235;SDS011;60146;52.498;13.462;2023-06-24T11:47:05;2.75;;;2.42;;
72235;SDS011;60146;52.498;13.462;2023-06-24T11:49:31;3.20;;;2.60;;
72235;SDS011;60146;52.498;13.462;2023-06-24T11:51:57;4.25;;;2.70;;
72235;SDS011;60146;52.498;13.462;2023-06-24T11:54:22;4.78;;;2.58;;
72235;SDS011;60146;52.498;13.462;2023-06-24T11:56:52;4.07;;;2.83;;
72235;SDS011;60146;52.498;13.462;2023-06-24T12:01:43;2.70;;;2.33;;
72235;SDS011;60146;52.498;13.462;2023-06-24T12:04:12;4.45;;;2.38;;
72235;SDS011;60146;52.498;13.462;2023-06-24T12:06:40;6.18;;;2.70;;
72235;SDS011;60146;52.498;13.462;2023-06-24T12:09:07;4.45;;;2.70;;
72235;SDS011;60146;52.498;13.462;2023-06-24T12:11:33;2.90;;;2.25;;
72235;SDS011;60146;52.498;13.462;2023-06-24T12:13:58;5.03;;;2.45;;
72235;SDS011;60146;52.498;13.462;2023-06-24T12:16:23;4.80;;;2.95;;
72235;SDS011;60146;52.498;13.462;2023-06-24T12:18:51;5.10;;;2.67;;
72235;SDS011;60146;52.498;13.462;2023-06-24T12:21:16;2.85;;;2.40;;
72235;SDS011;60146;52.498;13.462;2023-06-24T12:23:41;4.40;;;2.60;;
72235;SDS011;60146;52.498;13.462;2023-06-24T12:26:07;3.30;;;2.53;;
72235;SDS011;60146;52.498;13.462;2023-06-24T12:28:32;3.55;;;2.72;;
72235;SDS011;60146;52.498;13.462;2023-06-24T12:30:57;4.13;;;2.70;;
72235;SDS011;60146;52.498;13.462;2023-06-24T12:33:23;5.10;;;2.67;;
72235;SDS011;60146;52.498;13.462;2023-06-24T12:35:48;9.32;;;2.95;;
72235;SDS011;60146;52.498;13.462;2023-06-24T12:38:13;5.03;;;2.55;;
72235;SDS011;60146;52.498;13.462;2023-06-24T12:40:39;4.53;;;2.83;;
72235;SDS011;60146;52.498;13.462;2023-06-24T12:43:04;6.00;;;3.20;;
72235;SDS011;60146;52.498;13.462;2023-06-24T12:45:30;4.57;;;3.08;;
72235;SDS011;60146;52.498;13.462;2023-06-24T12:47:55;3.15;;;2.47;;
72235;SDS011;60146;52.498;13.462;2023-06-24T12:50:21;4.72;;;2.95;;
72235;SDS011;60146;52.498;13.462;2023-06-24T12:52:46;3.88;;;2.50;;
72235;SDS011;60146;52.498;13.462;2023-06-24T12:55:12;4.68;;;2.47;;
72235;SDS011;60146;52.498;13.462;2023-06-24T12:57:37;4.50;;;2.65;;
72235;SDS011;60146;52.498;13.462;2023-06-24T13:00:03;5.88;;;2.78;;
72235;SDS011;60146;52.498;13.462;2023-06-24T13:02:30;3.88;;;3.03;;
72235;SDS011;60146;52.498;13.462;2023-06-24T13:04:55;3.70;;;2.70;;
72235;SDS011;60146;52.498;13.462;2023-06-24T13:07:21;9.20;;;2.72;;
72235;SDS011;60146;52.498;13.462;2023-06-24T13:09:46;4.20;;;2.78;;
72235;SDS011;60146;52.498;13.462;2023-06-24T13:12:11;5.38;;;3.03;;
72235;SDS011;60146;52.498;13.462;2023-06-24T13:14:37;4.03;;;2.60;;
72235;SDS011;60146;52.498;13.462;2023-06-24T13:17:02;4.07;;;2.80;;
72235;SDS011;60146;52.498;13.462;2023-06-24T13:19:27;3.15;;;2.60;;
72235;SDS011;60146;52.498;13.462;2023-06-24T13:21:53;6.63;;;2.97;;
72235;SDS011;60146;52.498;13.462;2023-06-24T13:24:18;3.25;;;2.58;;
72235;SDS011;60146;52.498;13.462;2023-06-24T13:26:43;5.93;;;2.63;;
72235;SDS011;60146;52.498;13.462;2023-06-24T13:29:09;5.07;;;2.60;;
72235;SDS011;60146;52.498;13.462;2023-06-24T13:31:35;3.58;;;2.70;;
72235;SDS011;60146;52.498;13.462;2023-06-24T13:34:00;3.63;;;2.70;;
72235;SDS011;60146;52.498;13.462;2023-06-24T13:36:35;3.83;;;2.50;;
72235;SDS011;60146;52.498;13.462;2023-06-24T13:39:06;4.22;;;2.75;;
72235;SDS011;60146;52.498;13.462;2023-06-24T13:41:33;8.48;;;3.15;;
72235;SDS011;60146;52.498;13.462;2023-06-24T13:44:02;4.25;;;2.55;;
72235;SDS011;60146;52.498;13.462;2023-06-24T13:46:28;5.38;;;3.10;;
72235;SDS011;60146;52.498;13.462;2023-06-24T13:48:54;3.60;;;2.80;;
72235;SDS011;60146;52.498;13.462;2023-06-24T13:51:20;4.43;;;2.97;;
72235;SDS011;60146;52.498;13.462;2023-06-24T13:53:47;4.80;;;2.90;;
72235;SDS011;60146;52.498;13.462;2023-06-24T13:56:16;3.38;;;2.70;;
72235;SDS011;60146;52.498;13.462;2023-06-24T13:58:41;5.57;;;2.60;;
72235;SDS011;60146;52.498;13.462;2023-06-24T14:01:07;8.00;;;3.10;;
72235;SDS011;60146;52.498;13.462;2023-06-24T14:03:32;5.53;;;2.80;;
72235;SDS011;60146;52.498;13.462;2023-06-24T14:05:58;7.32;;;2.95;;
72235;SDS011;60146;52.498;13.462;2023-06-24T14:08:23;10.13;;;3.45;;
72235;SDS011;60146;52.498;13.462;2023-06-24T14:10:48;4.70;;;3.00;;
72235;SDS011;60146;52.498;13.462;2023-06-24T14:13:14;5.57;;;2.97;;
72235;SDS011;60146;52.498;13.462;2023-06-24T14:15:40;3.75;;;2.83;;
72235;SDS011;60146;52.498;13.462;2023-06-24T14:18:06;4.28;;;3.15;;
72235;SDS011;60146;52.498;13.462;2023-06-24T14:20:31;4.13;;;2.95;;
72235;SDS011;60146;52.498;13.462;2023-06-24T14:22:56;4.13;;;2.88;;
72235;SDS011;60146;52.498;13.462;2023-06-24T14:25:22;4.93;;;2.95;;
72235;SDS011;60146;52.498;13.462;2023-06-24T14:27:47;6.30;;;3.33;;
72235;SDS011;60146;52.498;13.462;2023-06-24T14:30:13;3.78;;;3.10;;
72235;SDS011;60146;52.498;13.462;2023-06-24T14:32:38;5.18;;;3.08;;
72235;SDS011;60146;52.498;13.462;2023-06-24T14:35:03;6.43;;;2.72;;
72235;SDS011;60146;52.498;13.462;2023-06-24T14:37:29;4.78;;;3.03;;
72235;SDS011;60146;52.498;13.462;2023-06-24T14:39:54;4.45;;;3.17;;
72235;SDS011;60146;52.498;13.462;2023-06-24T14:42:20;5.47;;;3.00;;
72235;SDS011;60146;52.498;13.462;2023-06-24T14:44:45;5.30;;;2.97;;
72235;SDS011;60146;52.498;13.462;2023-06-24T14:47:10;5.20;;;3.15;;
72235;SDS011;60146;52.498;13.462;2023-06-24T14:49:36;5.20;;;3.38;;